Time;durP1;ratioP1;P1;durP2;ratioP2;P2;SDS_P1;SDS_P2;PMS_P1;PMS_P2;Temp;Humidity;BMP_temperature;BMP_pressure;BME280_temperature;BME280_humidity;BME280_pressure;Samples;Min_cycle;Max_cycle;Signal;HPM_P1;HPM_P2
2021/11/09 00:00:48;;;;;;;6.03;5.70;;;;;;;13.26;80.73;101141.78;4945714;28;20039;-71
2021/11/09 00:03:15;;;;;;;5.75;5.35;;;;;;;13.26;80.55;101147.28;4950627;28;20026;-71
2021/11/09 00:05:50;;;;;;;5.07;4.82;;;;;;;13.25;81.02;101143.69;4947116;28;20431;-71
2021/11/09 00:08:25;;;;;;;7.90;5.93;;;;;;;13.28;80.70;101136.84;4947436;28;20027;-70
2021/11/09 00:10:51;;;;;;;5.88;5.57;;;;;;;13.27;80.54;101140.69;4941873;28;20045;-71
2021/11/09 00:13:17;;;;;;;5.22;5.03;;;;;;;13.25;80.68;101140.13;4935631;28;20019;-70
2021/11/09 00:15:43;;;;;;;4.90;4.70;;;;;;;13.28;80.52;101140.41;4914772;29;20198;-71
2021/11/09 00:18:09;;;;;;;5.47;4.97;;;;;;;13.28;80.68;101136.84;4942539;28;20585;-70
2021/11/09 00:20:36;;;;;;;5.38;5.00;;;;;;;13.30;81.06;101142.88;4947377;28;20113;-71
2021/11/09 00:23:03;;;;;;;5.35;5.00;;;;;;;13.30;80.70;101142.88;4952169;28;20765;-71
2021/11/09 00:25:29;;;;;;;3.97;3.70;;;;;;;13.30;80.09;101142.88;4940967;29;20493;-71
2021/11/09 00:27:54;;;;;;;5.10;4.80;;;;;;;13.31;81.03;101147.28;4941772;28;20023;-71
2021/11/09 00:30:23;;;;;;;5.18;4.78;;;;;;;13.35;80.34;101151.19;4947551;28;20599;-71
2021/11/09 00:32:49;;;;;;;6.05;5.32;;;;;;;13.33;80.55;101142.38;4942643;28;20730;-70
2021/11/09 00:35:21;;;;;;;4.32;4.03;;;;;;;13.34;80.05;101145.94;4944973;28;20114;-71
2021/11/09 00:37:50;;;;;;;6.00;4.25;;;;;;;13.31;80.34;101144.56;4943090;28;20023;-75
2021/11/09 00:40:18;;;;;;;3.72;3.53;;;;;;;13.31;80.11;101146.47;4930421;28;20027;-75
2021/11/09 00:42:44;;;;;;;3.80;3.60;;;;;;;13.32;80.67;101151.72;4934635;28;20075;-74
2021/11/09 00:45:11;;;;;;;3.72;3.55;;;;;;;13.31;80.15;101147.28;4929548;28;20367;-73
2021/11/09 00:47:37;;;;;;;4.38;4.18;;;;;;;13.29;79.66;101144.00;4948908;28;20027;-75
2021/11/09 00:50:05;;;;;;;3.80;3.50;;;;;;;13.27;79.80;101137.94;4930143;28;20035;-73
2021/11/09 00:52:31;;;;;;;2.83;2.72;;;;;;;13.28;80.13;101140.41;4931073;28;20138;-73
2021/11/09 00:54:56;;;;;;;2.60;2.50;;;;;;;13.29;79.90;101135.75;4932270;28;20114;-72
2021/11/09 00:57:22;;;;;;;2.58;2.47;;;;;;;13.28;79.66;101140.41;4927359;28;20034;-73
2021/11/09 00:59:47;;;;;;;2.53;2.42;;;;;;;13.28;79.55;101131.34;4932231;29;20028;-73
2021/11/09 01:02:13;;;;;;;2.58;2.38;;;;;;;13.28;79.69;101129.44;4941685;28;20034;-72
2021/11/09 01:04:39;;;;;;;1.80;1.70;;;;;;;13.27;79.80;101132.44;4944965;28;20454;-72
2021/11/09 01:07:13;;;;;;;2.00;1.90;;;;;;;13.25;79.97;101129.16;4949285;28;20077;-70
2021/11/09 01:09:44;;;;;;;1.63;1.52;;;;;;;13.17;79.64;101110.41;4947684;28;20450;-70
2021/11/09 01:12:13;;;;;;;1.35;1.35;;;;;;;13.16;79.96;101109.59;4948975;28;20049;-72
2021/11/09 01:14:41;;;;;;;1.75;1.65;;;;;;;13.18;79.54;101106.59;4933892;28;20475;-72
2021/11/09 01:17:07;;;;;;;0.80;0.80;;;;;;;13.17;79.67;101110.41;4946964;28;20047;-71
2021/11/09 01:19:38;;;;;;;1.10;1.10;;;;;;;13.21;79.38;101108.78;4944557;28;20066;-72
2021/11/09 01:22:04;;;;;;;0.80;0.80;;;;;;;13.13;79.28;101099.16;4924345;28;20031;-72
2021/11/09 01:24:33;;;;;;;0.93;0.93;;;;;;;13.19;79.67;101108.25;4947422;28;20028;-71
2021/11/09 01:27:06;;;;;;;0.75;0.75;;;;;;;13.15;79.47;101096.97;4929307;28;20051;-73
2021/11/09 01:29:32;;;;;;;0.60;0.60;;;;;;;13.27;79.82;101114.06;4943757;28;20031;-72
2021/11/09 01:31:58;;;;;;;1.27;1.17;;;;;;;13.18;79.52;101099.16;4940820;28;20108;-72
2021/11/09 01:34:26;;;;;;;3.92;2.00;;;;;;;13.16;79.21;101097.81;4927427;29;20071;-72
2021/11/09 01:36:53;;;;;;;1.60;1.50;;;;;;;13.16;79.24;101097.81;4946678;28;20107;-71
2021/11/09 01:39:23;;;;;;;1.88;1.77;;;;;;;13.18;79.48;101106.59;4949119;28;20055;-73
2021/11/09 01:41:49;;;;;;;1.48;1.38;;;;;;;13.08;79.41;101094.47;4943770;28;20034;-73
2021/11/09 01:44:17;;;;;;;1.02;1.02;;;;;;;13.20;79.27;101109.88;4946741;28;20031;-73
2021/11/09 01:46:44;;;;;;;0.95;0.95;;;;;;;13.16;79.42;101097.81;4929315;28;20422;-71
2021/11/09 01:49:09;;;;;;;2.05;1.35;;;;;;;13.12;79.16;101102.16;4950691;28;20118;-72
2021/11/09 01:51:52;;;;;;;1.88;1.77;;;;;;;13.23;78.97;101112.13;4932658;29;20051;-72
2021/11/09 01:54:17;;;;;;;2.30;2.13;;;;;;;13.26;79.18;101117.06;4943520;28;20039;-72
2021/11/09 01:56:43;;;;;;;1.58;1.50;;;;;;;13.26;79.38;101114.34;4949381;28;20359;-72
2021/11/09 01:59:09;;;;;;;1.45;1.45;;;;;;;13.17;78.92;101091.19;4931062;29;20050;-72
2021/11/09 02:01:35;;;;;;;1.25;1.25;;;;;;;13.26;78.88;101097.84;4946528;28;20466;-71
2021/11/09 02:04:08;;;;;;;1.00;1.00;;;;;;;13.24;79.08;101100.03;4929951;28;20066;-71
2021/11/09 02:06:34;;;;;;;0.65;0.65;;;;;;;13.24;78.85;101092.63;4931862;29;20469;-71
2021/11/09 02:09:13;;;;;;;0.70;0.70;;;;;;;13.27;79.13;101099.47;4930930;29;20042;-72
2021/11/09 02:11:39;;;;;;;0.52;0.52;;;;;;;13.28;78.67;101095.66;4946654;28;20051;-71
2021/11/09 02:14:05;;;;;;;0.95;0.95;;;;;;;13.35;78.88;101104.50;4947171;28;20027;-71
2021/11/09 02:16:32;;;;;;;1.80;1.70;;;;;;;13.32;78.43;101105.00;4933934;28;20393;-70
2021/11/09 02:18:58;;;;;;;1.92;1.83;;;;;;;13.35;78.65;101107.25;4951534;28;20030;-71
2021/11/09 02:21:24;;;;;;;1.55;1.45;;;;;;;13.33;78.61;101105.81;4951166;28;20019;-70
2021/11/09 02:23:50;;;;;;;1.80;1.70;;;;;;;13.24;78.81;101100.88;4952640;28;20483;-71
2021/11/09 02:26:19;;;;;;;1.88;1.77;;;;;;;13.33;78.15;101109.41;4945067;28;20086;-72
2021/11/09 02:28:47;;;;;;;1.77;1.75;;;;;;;13.34;78.24;101119.31;4936051;28;20031;-72
2021/11/09 02:31:13;;;;;;;2.40;2.30;;;;;;;13.32;78.02;101107.75;4951355;28;20066;-71
2021/11/09 02:33:39;;;;;;;6.03;5.45;;;;;;;13.30;78.12;101109.94;4933909;28;20039;-71
2021/11/09 02:36:05;;;;;;;8.65;4.00;;;;;;;13.28;77.60;101106.63;4932307;29;20036;-72
2021/11/09 02:38:30;;;;;;;3.05;2.85;;;;;;;13.29;78.23;101108.31;4951329;28;20382;-72
2021/11/09 02:40:57;;;;;;;2.30;2.20;;;;;;;13.30;78.05;101109.94;4929751;29;20038;-71
2021/11/09 02:43:24;;;;;;;2.72;2.63;;;;;;;13.29;78.11;101119.28;4925381;28;20465;-70
2021/11/09 02:46:30;;;;;;;4.43;2.25;;;;;;;13.27;78.13;101110.47;4947967;28;20023;-72
2021/11/09 03:01:40;;;;;;;3.00;2.80;;;;;;;13.24;77.80;101122.00;4953195;28;20382;-78
2021/11/09 03:09:19;;;;;;;3.10;2.80;;;;;;;13.06;77.46;101104.06;4950858;28;20114;-71
2021/11/09 03:11:57;;;;;;;2.67;2.50;;;;;;;13.12;77.39;101113.16;4932165;28;20181;-72
2021/11/09 03:14:25;;;;;;;2.67;1.73;;;;;;;13.08;77.43;101110.94;4933077;28;20070;-71
2021/11/09 03:16:52;;;;;;;1.58;1.48;;;;;;;13.09;77.01;101114.50;4952971;28;20373;-71
2021/11/09 03:47:02;;;;;;;1.45;1.35;;;;;;;12.00;78.01;101099.16;4905941;29;20024;-72
2021/11/09 03:49:31;;;;;;;1.42;0.77;;;;;;;11.96;77.58;101103.50;4896631;29;20123;-71
2021/11/09 03:51:58;;;;;;;0.50;0.50;;;;;;;11.88;77.64;101096.53;4924210;28;20050;-71
2021/11/09 03:54:27;;;;;;;0.68;0.68;;;;;;;11.91;78.41;101100.66;4911423;28;20110;-72
2021/11/09 03:57:07;;;;;;;0.20;0.20;;;;;;;11.87;77.65;101099.50;4950515;28;20031;-70
2021/11/09 04:02:22;;;;;;;0.40;0.40;;;;;;;11.69;77.69;101098.78;4950371;28;20023;-72
2021/11/09 04:04:54;;;;;;;0.40;0.35;;;;;;;11.61;78.06;101099.25;4941911;29;20042;-71
2021/11/09 04:19:56;;;;;;;0.30;0.30;;;;;;;11.13;77.89;101101.66;4950620;28;20122;-71
2021/11/09 04:52:00;;;;;;;0.20;0.20;;;;;;;10.94;78.40;101112.06;4945609;28;20062;-71
2021/11/09 05:10:48;;;;;;;0.40;0.40;;;;;;;11.24;78.40;101105.34;4933548;28;20059;-70
2021/11/09 05:13:13;;;;;;;0.50;0.50;;;;;;;11.28;78.35;101103.75;4947457;28;20037;-70
2021/11/09 05:15:39;;;;;;;0.40;0.40;;;;;;;11.33;78.57;101111.22;4947060;28;20031;-70
2021/11/09 05:18:05;;;;;;;0.85;0.85;;;;;;;11.37;78.37;101106.06;4927013;28;20044;-69
2021/11/09 05:20:31;;;;;;;0.98;0.85;;;;;;;11.38;78.17;101113.22;4956694;28;20031;-70
2021/11/09 05:22:58;;;;;;;0.95;0.95;;;;;;;11.35;78.71;101112.63;4949080;28;20392;-70
2021/11/09 05:25:24;;;;;;;1.85;1.40;;;;;;;11.33;78.37;101105.72;4940604;28;20063;-70
2021/11/09 05:27:51;;;;;;;1.60;1.55;;;;;;;11.39;78.78;101110.22;4931027;29;20039;-70
2021/11/09 05:30:16;;;;;;;1.40;1.30;;;;;;;11.27;78.01;101091.19;4944956;28;20031;-70
2021/11/09 05:32:43;;;;;;;1.45;1.35;;;;;;;11.42;78.49;101114.34;4944916;28;20034;-71
2021/11/09 05:35:09;;;;;;;2.72;1.13;;;;;;;11.38;77.92;101107.75;4957976;28;20117;-70
2021/11/09 05:37:40;;;;;;;1.63;1.52;;;;;;;11.32;78.00;101112.31;4932514;29;20031;-70
2021/11/09 05:40:07;;;;;;;1.05;1.05;;;;;;;11.23;78.40;101116.56;4921251;28;20102;-71
2021/11/09 05:42:33;;;;;;;0.85;0.85;;;;;;;11.13;78.41;101117.25;4947506;28;20472;-71
2021/11/09 05:44:58;;;;;;;0.80;0.80;;;;;;;11.03;78.37;101117.13;4916351;29;20043;-72
2021/11/09 05:47:24;;;;;;;6.28;0.82;;;;;;;10.93;78.81;101118.63;4934219;28;20454;-73
2021/11/09 05:49:50;;;;;;;0.85;0.55;;;;;;;10.86;78.92;101123.44;4951859;28;20816;-70
2021/11/09 05:52:17;;;;;;;0.40;0.40;;;;;;;10.78;78.61;101127.44;4912737;28;20063;-71
2021/11/09 05:54:43;;;;;;;0.22;0.20;;;;;;;10.70;78.48;101130.56;4949691;28;20043;-71
2021/11/09 05:57:08;;;;;;;0.20;0.20;;;;;;;10.61;78.82;101126.63;4950654;28;20113;-70
2021/11/09 05:59:34;;;;;;;0.40;0.40;;;;;;;10.57;79.42;101126.28;4940263;28;20608;-71
2021/11/09 06:02:00;;;;;;;0.80;0.45;;;;;;;10.52;79.02;101123.47;4944224;28;20834;-71
2021/11/09 06:04:26;;;;;;;1.15;0.68;;;;;;;10.48;78.57;101133.22;4952266;28;20038;-72
2021/11/09 06:06:52;;;;;;;0.52;0.52;;;;;;;10.45;79.06;101125.53;4940937;28;20105;-71
2021/11/09 06:09:17;;;;;;;0.40;0.40;;;;;;;10.40;79.30;101130.94;4930070;28;20054;-70
2021/11/09 06:11:43;;;;;;;0.63;0.40;;;;;;;10.35;79.02;101123.44;4953994;28;20039;-72
2021/11/09 06:14:08;;;;;;;0.50;0.50;;;;;;;10.28;79.06;101120.03;4949164;28;20582;-70
2021/11/09 06:16:35;;;;;;;0.40;0.40;;;;;;;10.24;79.74;101125.16;4945214;29;20043;-70
2021/11/09 06:19:00;;;;;;;0.30;0.30;;;;;;;10.23;79.66;101125.41;4951588;28;20039;-73
2021/11/09 06:21:26;;;;;;;0.30;0.30;;;;;;;10.22;79.83;101123.75;4951716;28;20027;-72
2021/11/09 06:23:52;;;;;;;0.32;0.20;;;;;;;10.24;79.48;101127.88;4933852;29;20104;-74
2021/11/09 06:26:18;;;;;;;0.60;0.60;;;;;;;10.22;80.11;101127.31;4938500;28;20664;-73
2021/11/09 06:28:43;;;;;;;1.58;0.40;;;;;;;10.26;79.93;101124.91;4947895;28;20042;-74
2021/11/09 06:31:09;;;;;;;0.85;0.55;;;;;;;10.33;80.08;101130.22;4930820;28;20122;-71
2021/11/09 06:33:36;;;;;;;1.45;0.40;;;;;;;10.36;80.11;101135.22;4918698;28;20070;-71
2021/11/09 06:36:02;;;;;;;0.30;0.30;;;;;;;10.36;80.19;101144.25;4934396;28;20031;-71
2021/11/09 06:38:28;;;;;;;0.77;0.60;;;;;;;10.37;80.22;101142.38;4952389;28;20031;-71
2021/11/09 06:40:54;;;;;;;0.20;0.20;;;;;;;10.39;80.10;101142.94;4955144;28;20082;-71
2021/11/09 06:43:19;;;;;;;0.10;0.10;;;;;;;10.41;80.21;101144.34;4944113;29;20669;-73
2021/11/09 06:45:45;;;;;;;0.20;0.20;;;;;;;10.47;80.03;101148.00;4920912;29;20680;-73
2021/11/09 06:48:11;;;;;;;0.40;0.30;;;;;;;10.49;80.30;101140.38;4944398;28;20664;-72
2021/11/09 06:50:37;;;;;;;0.15;0.10;;;;;;;10.52;80.23;101150.81;4943140;28;20036;-73
2021/11/09 06:53:02;;;;;;;0.20;0.10;;;;;;;10.58;80.61;101149.81;4950186;28;20026;-71
2021/11/09 06:55:28;;;;;;;0.10;0.10;;;;;;;10.58;79.73;101149.81;4945633;28;20154;-73
2021/11/09 06:57:53;;;;;;;0.15;0.15;;;;;;;10.62;80.21;101152.91;4950444;28;20027;-73
2021/11/09 07:00:22;;;;;;;0.40;0.20;;;;;;;10.62;80.00;101155.63;4929048;29;20043;-73
2021/11/09 07:02:48;;;;;;;0.20;0.20;;;;;;;10.63;79.56;101152.66;4945789;28;20035;-71
2021/11/09 07:05:14;;;;;;;0.25;0.25;;;;;;;10.61;79.97;101154.78;4923373;28;20383;-72
2021/11/09 07:07:40;;;;;;;0.30;0.30;;;;;;;10.59;79.51;101156.94;4939940;28;20032;-72
2021/11/09 07:10:07;;;;;;;0.40;0.40;;;;;;;10.53;79.42;101163.41;4927582;28;20047;-71
2021/11/09 07:12:33;;;;;;;1.35;0.43;;;;;;;10.48;79.78;101155.97;4943985;28;20034;-70
2021/11/09 07:14:59;;;;;;;0.28;0.28;;;;;;;10.43;79.74;101169.53;4941487;28;20131;-71
2021/11/09 07:17:24;;;;;;;0.90;0.55;;;;;;;10.40;79.72;101163.75;4947188;28;20110;-71
2021/11/09 07:19:51;;;;;;;0.30;0.30;;;;;;;10.34;80.03;101157.34;4917125;28;20397;-73
2021/11/09 07:22:23;;;;;;;0.68;0.55;;;;;;;10.37;80.47;101169.69;4937734;28;20066;-74
2021/11/09 07:24:48;;;;;;;1.02;0.52;;;;;;;10.34;80.07;101164.69;4949696;28;20094;-73
2021/11/09 07:27:22;;;;;;;0.35;0.30;;;;;;;10.30;80.12;101176.09;4948903;28;20023;-74
2021/11/09 07:29:49;;;;;;;2.13;0.63;;;;;;;10.28;80.31;101172.78;4948953;28;20043;-72
2021/11/09 07:32:16;;;;;;;0.65;0.50;;;;;;;10.28;80.34;101178.25;4946294;28;20247;-72
2021/11/09 07:34:47;;;;;;;0.50;0.50;;;;;;;10.25;80.54;101178.75;4948541;28;20023;-73
2021/11/09 07:37:13;;;;;;;0.50;0.50;;;;;;;10.28;80.76;101189.19;4948655;28;20097;-72
2021/11/09 07:39:40;;;;;;;0.80;0.60;;;;;;;10.27;80.77;101198.47;4951675;28;20466;-71
2021/11/09 07:42:06;;;;;;;0.30;0.30;;;;;;;10.29;80.48;101201.81;4927885;28;20465;-73
2021/11/09 07:44:31;;;;;;;0.40;0.40;;;;;;;10.35;80.56;101194.53;4951046;28;20031;-73
2021/11/09 07:46:57;;;;;;;0.20;0.20;;;;;;;10.37;81.06;101199.78;4949021;28;20031;-72
2021/11/09 07:49:23;;;;;;;0.57;0.57;;;;;;;10.38;80.68;101193.22;4920690;29;20514;-72
2021/11/09 07:51:49;;;;;;;0.68;0.68;;;;;;;10.40;80.65;101196.56;4935636;28;20126;-73
2021/11/09 07:54:18;;;;;;;0.68;0.50;;;;;;;10.41;80.80;101198.19;4927563;29;20027;-73
2021/11/09 07:56:43;;;;;;;0.55;0.50;;;;;;;10.45;80.64;101210.28;4943058;28;20075;-76
2021/11/09 08:01:48;;;;;;;2.25;1.13;;;;;;;10.47;81.04;101197.22;4924626;29;20035;-76
2021/11/09 08:04:24;;;;;;;0.63;0.50;;;;;;;10.55;80.62;101204.19;4928663;29;20032;-76
2021/11/09 08:07:00;;;;;;;0.38;0.38;;;;;;;10.55;80.79;101205.00;4923847;29;20032;-74
2021/11/09 08:09:27;;;;;;;0.55;0.40;;;;;;;10.60;80.67;101212.47;4925747;29;20046;-75
2021/11/09 08:11:54;;;;;;;0.50;0.50;;;;;;;10.63;81.03;101206.50;4920770;29;20068;-77
2021/11/09 08:14:20;;;;;;;0.50;0.50;;;;;;;10.62;81.00;101202.94;4943173;28;20036;-75
2021/11/09 08:16:49;;;;;;;0.65;0.65;;;;;;;10.75;80.37;101217.41;4913796;29;20036;-75
2021/11/09 08:19:17;;;;;;;0.77;0.77;;;;;;;10.68;80.48;101200.31;4931389;29;20028;-85
2021/11/09 08:21:42;;;;;;;1.10;1.10;;;;;;;10.80;81.16;101209.25;4939957;28;20024;-76
2021/11/09 08:24:09;;;;;;;0.60;0.60;;;;;;;10.90;80.63;101212.16;4930228;29;20031;-75
2021/11/09 08:26:37;;;;;;;0.47;0.47;;;;;;;10.97;80.43;101215.56;4931321;29;20486;-75
2021/11/09 08:29:04;;;;;;;0.30;0.30;;;;;;;11.07;80.37;101211.31;4923225;29;20043;-74
2021/11/09 08:31:35;;;;;;;0.43;0.43;;;;;;;11.18;80.31;101210.41;4927540;29;20122;-74
2021/11/09 08:34:02;;;;;;;1.95;0.60;;;;;;;11.27;80.10;101216.28;4932256;29;20373;-74
2021/11/09 08:36:31;;;;;;;0.50;0.50;;;;;;;11.38;80.07;101217.28;4932665;29;20027;-74
2021/11/09 08:39:02;;;;;;;0.40;0.40;;;;;;;11.46;80.20;101208.59;4926502;29;20039;-73
2021/11/09 08:41:37;;;;;;;0.52;0.52;;;;;;;11.61;80.59;101210.72;4917289;29;20020;-74
2021/11/09 08:44:08;;;;;;;0.45;0.45;;;;;;;12.24;81.88;101205.75;4923121;29;20027;-73
2021/11/09 08:46:38;;;;;;;0.20;0.20;;;;;;;13.39;79.98;101223.75;4917652;29;20047;-75
2021/11/09 08:49:07;;;;;;;0.50;0.50;;;;;;;14.57;77.43;101220.59;4930571;29;20023;-73
2021/11/09 08:51:34;;;;;;;0.77;0.38;;;;;;;15.66;74.39;101218.56;4932095;28;20625;-73
2021/11/09 09:04:34;;;;;;;0.32;0.20;;;;;;;20.17;64.53;101217.97;4943266;28;20147;-74
2021/11/09 09:07:02;;;;;;;0.30;0.20;;;;;;;20.83;63.09;101225.91;4938721;28;20452;-74
2021/11/09 09:09:27;;;;;;;0.65;0.10;;;;;;;21.48;62.09;101232.00;4949959;28;20098;-75
2021/11/09 09:11:54;;;;;;;0.25;0.20;;;;;;;22.03;61.75;101228.75;4950687;28;20031;-74
2021/11/09 09:14:21;;;;;;;0.10;0.10;;;;;;;22.53;61.09;101223.94;4927328;28;20126;-73
2021/11/09 09:16:48;;;;;;;0.40;0.25;;;;;;;22.97;59.98;101227.50;4936377;28;20043;-74
2021/11/09 09:19:15;;;;;;;0.55;0.22;;;;;;;23.20;58.41;101230.09;4926880;28;20023;-74
2021/11/09 09:21:46;;;;;;;3.40;0.35;;;;;;;23.32;57.10;101227.47;4921084;29;20077;-73
2021/11/09 09:24:28;;;;;;;0.47;0.20;;;;;;;23.52;57.37;101225.88;4937316;28;20085;-74
2021/11/09 09:27:03;;;;;;;0.55;0.10;;;;;;;23.97;57.30;101230.94;4934083;29;20053;-74
2021/11/09 09:29:44;;;;;;;0.45;0.20;;;;;;;24.36;56.00;101234.44;4941688;28;20035;-74
2021/11/09 09:56:52;;;;;;;1.35;0.10;;;;;;;26.69;47.91;101247.50;4954435;28;20456;-74
2021/11/09 09:59:27;;;;;;;1.13;0.10;;;;;;;27.26;44.87;101243.50;4951230;28;20046;-76
2021/11/09 10:02:29;;;;;;;0.30;0.10;;;;;;;27.96;44.43;101250.44;4955562;28;20060;-75
2021/11/09 10:04:58;;;;;;;0.20;0.10;;;;;;;28.35;44.32;101244.94;4923527;28;20035;-75
2021/11/09 10:07:31;;;;;;;0.10;0.10;;;;;;;28.81;41.77;101243.50;4951264;28;20192;-75
2021/11/09 10:09:58;;;;;;;1.17;0.22;;;;;;;29.02;39.58;101248.75;4954185;28;20110;-75
2021/11/09 10:12:32;;;;;;;0.40;0.40;;;;;;;29.38;39.94;101258.69;4927044;28;20403;-76
2021/11/09 10:15:11;;;;;;;0.22;0.20;;;;;;;29.76;38.84;101245.63;4954231;28;20042;-76
2021/11/09 10:17:40;;;;;;;2.17;0.43;;;;;;;30.04;36.46;101261.38;4953979;28;20482;-76
2021/11/09 10:20:14;;;;;;;0.30;0.10;;;;;;;30.33;37.59;101264.63;4940421;28;20024;-74
2021/11/09 10:22:43;;;;;;;0.22;0.13;;;;;;;30.31;34.42;101252.91;4950340;28;20031;-74
2021/11/09 10:25:14;;;;;;;0.55;0.35;;;;;;;30.54;34.88;101260.50;4944528;28;20382;-75
2021/11/09 10:27:46;;;;;;;0.50;0.28;;;;;;;30.95;34.90;101252.09;4953764;28;20072;-75
2021/11/09 10:30:16;;;;;;;0.50;0.30;;;;;;;31.13;30.85;101257.97;4950682;28;20027;-75
2021/11/09 10:32:42;;;;;;;1.75;0.20;;;;;;;30.26;31.29;101247.59;4952346;28;20032;-75
2021/11/09 10:35:11;;;;;;;2.75;0.20;;;;;;;29.58;32.03;101250.16;4906126;28;20097;-75
2021/11/09 10:37:38;;;;;;;0.50;0.40;;;;;;;29.12;32.26;101241.66;4942627;28;20023;-75
2021/11/09 10:40:11;;;;;;;1.10;0.32;;;;;;;28.97;32.98;101238.59;4934528;28;20043;-74
2021/11/09 10:42:43;;;;;;;0.47;0.20;;;;;;;29.27;34.07;101235.13;4943648;28;20148;-75
2021/11/09 10:45:12;;;;;;;0.68;0.30;;;;;;;29.29;32.91;101231.94;4953343;28;20051;-76
2021/11/09 10:47:44;;;;;;;1.38;0.15;;;;;;;29.43;32.91;101243.47;4936557;29;20031;-74
2021/11/09 10:50:22;;;;;;;3.75;0.30;;;;;;;29.56;31.77;101241.28;4942188;28;20027;-76
2021/11/09 10:53:02;;;;;;;0.70;0.20;;;;;;;29.70;31.22;101235.88;4956503;28;20077;-75
2021/11/09 10:55:42;;;;;;;0.55;0.20;;;;;;;28.81;31.38;101241.50;4947148;28;20083;-74
2021/11/09 11:06:29;;;;;;;0.95;0.52;;;;;;;30.05;30.65;101234.81;4921899;29;20040;-75
2021/11/09 11:09:10;;;;;;;1.48;0.22;;;;;;;29.11;31.42;101237.25;4933495;28;21578;-75
2021/11/09 11:11:39;;;;;;;0.80;0.28;;;;;;;27.78;33.23;101232.38;4949879;28;20453;-75
2021/11/09 11:14:25;;;;;;;1.05;0.25;;;;;;;26.75;34.20;101226.44;4937302;28;20025;-75
2021/11/09 11:16:57;;;;;;;0.28;0.20;;;;;;;25.59;35.69;101231.28;4944259;28;20035;-75
2021/11/09 11:19:31;;;;;;;0.50;0.20;;;;;;;24.32;38.30;101219.53;4955529;28;20047;-74
2021/11/09 11:22:08;;;;;;;1.00;0.30;;;;;;;23.48;39.60;101211.78;4936188;29;20110;-75
2021/11/09 11:24:35;;;;;;;0.40;0.10;;;;;;;22.99;40.98;101208.47;4943715;28;20027;-75
2021/11/09 11:27:02;;;;;;;0.55;0.28;;;;;;;22.75;41.96;101212.63;4956779;28;20031;-75
2021/11/09 11:29:35;;;;;;;1.10;0.73;;;;;;;22.57;41.47;101208.19;4954661;28;20028;-74
2021/11/09 11:32:02;;;;;;;0.43;0.20;;;;;;;22.23;42.23;101204.22;4964626;28;20033;-75
2021/11/09 11:34:29;;;;;;;1.30;0.40;;;;;;;21.97;42.67;101194.69;4951307;28;20091;-75
2021/11/09 11:36:55;;;;;;;0.65;0.10;;;;;;;21.62;43.08;101196.56;4928761;29;20058;-75
2021/11/09 11:39:23;;;;;;;1.70;0.20;;;;;;;21.38;43.87;101186.63;4943810;28;20036;-75
2021/11/09 11:41:52;;;;;;;3.55;0.28;;;;;;;21.20;44.72;101193.25;4952606;28;20027;-74
2021/11/09 11:44:26;;;;;;;0.77;0.20;;;;;;;20.98;44.69;101189.38;4942641;28;20031;-74
2021/11/09 11:46:54;;;;;;;0.22;0.10;;;;;;;20.84;45.75;101188.66;4952572;28;20027;-73
2021/11/09 11:49:21;;;;;;;0.68;0.15;;;;;;;20.60;46.46;101189.75;4940350;28;20498;-74
2021/11/09 11:51:46;;;;;;;2.30;0.40;;;;;;;20.40;46.99;101185.53;4945109;28;20099;-74
2021/11/09 11:54:16;;;;;;;2.75;0.20;;;;;;;20.19;47.30;101174.91;4952425;28;20065;-74
2021/11/09 11:56:45;;;;;;;0.43;0.13;;;;;;;19.99;47.81;101187.28;4949624;28;20046;-74
2021/11/09 11:59:34;;;;;;;0.43;0.10;;;;;;;19.66;48.63;101190.16;4958235;28;20522;-73
2021/11/09 12:02:03;;;;;;;1.20;0.35;;;;;;;19.36;49.27;101181.31;4957660;28;20050;-74
2021/11/09 12:04:44;;;;;;;0.93;0.20;;;;;;;19.07;50.20;101172.44;4953777;28;20031;-75
2021/11/09 12:07:19;;;;;;;0.73;0.30;;;;;;;18.78;50.96;101165.19;4955472;28;20031;-74
2021/11/09 12:09:47;;;;;;;0.57;0.28;;;;;;;18.60;51.73;101172.41;4932250;29;20020;-73
2021/11/09 12:12:18;;;;;;;1.67;0.28;;;;;;;18.44;51.46;101164.34;4953727;28;20025;-75
2021/11/09 12:14:59;;;;;;;0.82;0.40;;;;;;;18.23;52.39;101172.13;4949279;28;20430;-73
2021/11/09 12:17:35;;;;;;;4.13;0.52;;;;;;;18.08;52.58;101164.06;4954945;28;20610;-74
2021/11/09 12:20:05;;;;;;;0.25;0.22;;;;;;;17.89;53.37;101156.53;4944013;28;20098;-74
2021/11/09 12:22:52;;;;;;;1.33;0.20;;;;;;;17.80;54.02;101163.88;4924595;29;20386;-74
2021/11/09 12:25:33;;;;;;;0.45;0.20;;;;;;;17.71;54.03;101160.09;4938294;29;20031;-74
2021/11/09 12:28:08;;;;;;;0.32;0.17;;;;;;;17.55;54.57;101146.47;4938393;28;20038;-75
2021/11/09 12:30:37;;;;;;;1.15;0.30;;;;;;;17.39;55.44;101156.06;4944486;28;20019;-74
2021/11/09 12:33:19;;;;;;;1.10;0.30;;;;;;;17.35;55.50;101157.78;4955824;28;20054;-74
2021/11/09 12:35:47;;;;;;;3.72;0.20;;;;;;;17.28;55.22;101158.13;4944483;28;20034;-74
2021/11/09 12:38:17;;;;;;;0.80;0.15;;;;;;;17.27;55.44;101157.31;4953603;28;20027;-75
2021/11/09 12:40:50;;;;;;;1.20;0.20;;;;;;;17.31;55.35;101153.94;4934948;29;20035;-74
2021/11/09 12:43:31;;;;;;;0.73;0.10;;;;;;;17.36;55.55;101153.88;4950510;28;20039;-73
2021/11/09 12:46:10;;;;;;;3.35;0.38;;;;;;;17.46;56.00;101142.69;4944259;28;20688;-73
2021/11/09 12:48:39;;;;;;;0.95;0.10;;;;;;;17.60;55.57;101142.81;4952843;28;20456;-73
2021/11/09 12:51:08;;;;;;;1.15;0.40;;;;;;;17.75;55.19;101141.78;4927506;29;20135;-72
2021/11/09 12:53:47;;;;;;;0.57;0.30;;;;;;;17.75;55.21;101133.50;4925845;29;20542;-72
2021/11/09 12:56:15;;;;;;;0.73;0.68;;;;;;;17.72;54.80;101129.38;4921561;29;20107;-73
2021/11/09 12:58:51;;;;;;;2.85;0.75;;;;;;;17.70;55.46;101136.34;4914121;29;20036;-73
2021/11/09 13:04:02;;;;;;;0.50;0.50;;;;;;;17.66;55.76;101121.47;4928077;29;20039;-72
2021/11/09 13:06:55;;;;;;;2.67;1.98;;;;;;;17.80;55.30;101130.66;4928346;29;20042;-72
2021/11/09 13:09:29;;;;;;;1.73;1.45;;;;;;;17.80;55.11;101137.00;4921559;29;20150;-74
2021/11/09 13:12:10;;;;;;;1.10;1.00;;;;;;;17.84;54.91;101136.41;4928301;29;20028;-72
2021/11/09 13:14:45;;;;;;;0.45;0.45;;;;;;;17.77;54.76;101134.00;4909792;29;20059;-74
2021/11/09 13:17:16;;;;;;;2.28;0.40;;;;;;;17.74;54.68;101126.31;4929710;29;20111;-73
2021/11/09 13:19:43;;;;;;;0.40;0.28;;;;;;;17.77;55.49;101125.72;4910472;29;20016;-72
2021/11/09 13:22:29;;;;;;;0.90;0.30;;;;;;;17.82;54.40;101127.59;4913359;29;20087;-74
2021/11/09 13:24:55;;;;;;;0.77;0.30;;;;;;;17.69;55.02;101129.97;4905884;29;20040;-73
2021/11/09 13:27:37;;;;;;;0.20;0.20;;;;;;;17.57;55.19;101127.63;4915161;29;20050;-72
2021/11/09 13:30:19;;;;;;;3.65;0.20;;;;;;;17.54;55.48;101121.88;4908158;29;20027;-74
2021/11/09 13:32:52;;;;;;;1.85;0.45;;;;;;;17.44;55.39;101122.84;4915516;29;20036;-73
2021/11/09 13:35:20;;;;;;;1.27;0.65;;;;;;;17.38;55.15;101121.25;4910120;29;20063;-70
2021/11/09 13:37:47;;;;;;;2.45;1.35;;;;;;;17.30;55.33;101121.91;4913471;29;20040;-72
2021/11/09 13:40:12;;;;;;;2.75;1.00;;;;;;;17.18;55.52;101114.84;4909581;29;20031;-72
2021/11/09 13:42:38;;;;;;;3.65;0.50;;;;;;;17.07;56.30;101116.91;4914407;29;20066;-71
2021/11/09 13:45:14;;;;;;;3.25;0.50;;;;;;;16.97;55.97;101119.78;4903319;29;20028;-73
2021/11/09 13:47:40;;;;;;;0.28;0.20;;;;;;;16.80;56.69;101119.38;4917083;29;20032;-73
2021/11/09 13:50:10;;;;;;;6.57;0.22;;;;;;;16.70;56.59;101114.75;4908475;29;20031;-71
2021/11/09 13:52:51;;;;;;;0.55;0.20;;;;;;;16.64;57.04;101110.41;4913279;29;20123;-73
2021/11/09 13:55:20;;;;;;;0.85;0.43;;;;;;;16.63;56.70;101114.25;4929088;29;20051;-74
2021/11/09 13:57:47;;;;;;;4.13;0.20;;;;;;;16.60;57.11;101120.38;4916044;29;20046;-72
2021/11/09 14:00:35;;;;;;;3.83;0.28;;;;;;;16.60;56.59;101114.84;4930204;29;20115;-72
2021/11/09 14:03:12;;;;;;;0.85;0.52;;;;;;;16.51;56.72;101117.41;4926305;29;20054;-72
2021/11/09 14:16:38;;;;;;;1.40;0.70;;;;;;;16.55;57.25;101102.72;4935080;29;20042;-73
2021/11/09 14:19:10;;;;;;;1.27;0.35;;;;;;;16.44;56.89;101094.81;4931984;29;20087;-72
2021/11/09 14:21:43;;;;;;;3.95;0.30;;;;;;;16.31;57.20;101096.31;4931125;29;20023;-73